Time;durP1;ratioP1;P1;durP2;ratioP2;P2;SDS_P1;SDS_P2;PMS_P1;PMS_P2;Temp;Humidity;BMP_temperature;BMP_pressure;BME280_temperature;BME280_humidity;BME280_pressure;Samples;Min_cycle;Max_cycle;Signal;HPM_P1;HPM_P2
2022/01/17 00:00:54;;;;;;;;;;;1.30;99.90;;;;;;5033130;28;19944;-86
2022/01/17 00:03:24;;;;;;;;;;;1.30;99.90;;;;;;5035722;28;19920;-87
2022/01/17 00:05:56;;;;;;;;;;;1.30;99.90;;;;;;5036145;28;20032;-85
2022/01/17 00:08:21;;;;;;;;;;;1.30;99.90;;;;;;5034022;28;19913;-86
2022/01/17 00:10:47;;;;;;;;;;;1.30;99.90;;;;;;5047626;28;20432;-88
2022/01/17 00:13:28;;;;;;;;;;;1.30;99.90;;;;;;5047767;28;19909;-87
2022/01/17 00:16:12;;;;;;;;;;;1.30;99.90;;;;;;5032425;28;19924;-86
2022/01/17 00:21:06;;;;;;;;;;;1.30;99.90;;;;;;5031230;28;19916;-86
2022/01/17 00:23:32;;;;;;;;;;;1.30;99.90;;;;;;5032254;28;19921;-86
2022/01/17 00:25:58;;;;;;;;;;;1.30;99.90;;;;;;5030305;28;20004;-88
2022/01/17 00:28:23;;;;;;;;;;;1.20;99.90;;;;;;5025148;28;19935;-86
2022/01/17 00:30:49;;;;;;;;;;;1.20;99.90;;;;;;5031183;28;19919;-85
2022/01/17 00:33:15;;;;;;;;;;;1.20;99.90;;;;;;5029925;28;20013;-87
2022/01/17 00:35:40;;;;;;;;;;;1.10;99.90;;;;;;5029899;28;19932;-87
2022/01/17 00:38:07;;;;;;;;;;;1.10;99.90;;;;;;5029955;28;19910;-90
2022/01/17 00:40:33;;;;;;;;;;;1.00;99.90;;;;;;5029675;28;19909;-86
2022/01/17 00:42:58;;;;;;;;;;;1.10;99.90;;;;;;5017423;28;19959;-87
2022/01/17 00:45:29;;;;;;;;;;;1.10;99.90;;;;;;5028716;28;19956;-87
2022/01/17 00:47:55;;;;;;;;;;;1.10;99.90;;;;;;5030308;28;19916;-87
2022/01/17 00:50:25;;;;;;;;;;;1.10;99.90;;;;;;5022005;28;19917;-86
2022/01/17 00:52:51;;;;;;;;;;;1.00;99.90;;;;;;5034933;28;19913;-86
2022/01/17 00:55:17;;;;;;;;;;;1.00;99.90;;;;;;5034172;28;19963;-87
2022/01/17 00:57:42;;;;;;;;;;;0.90;99.90;;;;;;5033266;28;19913;-86
2022/01/17 01:00:09;;;;;;;;;;;1.00;99.90;;;;;;5035185;28;19917;-87
2022/01/17 01:02:35;;;;;;;;;;;0.90;99.90;;;;;;5031830;28;19917;-85
2022/01/17 01:05:01;;;;;;;;;;;0.90;99.90;;;;;;5032830;28;19917;-88
2022/01/17 01:07:27;;;;;;;;;;;1.00;99.90;;;;;;5028891;28;19964;-87
2022/01/17 01:10:03;;;;;;;;;;;1.00;99.90;;;;;;5034132;28;19917;-88
2022/01/17 01:12:29;;;;;;;;;;;0.90;99.90;;;;;;5047253;28;20406;-87
2022/01/17 01:14:55;;;;;;;;;;;0.90;99.90;;;;;;5016358;28;20020;-87
2022/01/17 01:17:33;;;;;;;;;;;0.90;99.90;;;;;;5034414;28;20434;-86
2022/01/17 01:28:22;;;;;;;;;;;0.80;99.90;;;;;;5034584;28;20304;-88
2022/01/17 01:30:51;;;;;;;;;;;0.90;99.90;;;;;;5032948;28;19955;-86
2022/01/17 01:33:24;;;;;;;;;;;0.90;99.90;;;;;;5017765;28;19963;-88
2022/01/17 01:35:57;;;;;;;;;;;0.90;99.90;;;;;;5031534;28;19920;-89
2022/01/17 01:38:22;;;;;;;;;;;0.70;99.90;;;;;;5032678;28;19919;-87
2022/01/17 01:40:48;;;;;;;;;;;0.70;99.90;;;;;;5032766;28;19909;-87
2022/01/17 01:43:14;;;;;;;;;;;0.70;99.90;;;;;;5032234;28;19940;-88
2022/01/17 01:45:39;;;;;;;;;;;0.70;99.90;;;;;;5030426;28;19916;-88
2022/01/17 01:48:08;;;;;;;;;;;0.70;99.90;;;;;;5022846;28;19967;-90
2022/01/17 01:50:33;;;;;;;;;;;0.70;99.90;;;;;;5032063;28;19917;-86
2022/01/17 01:52:59;;;;;;;;;;;0.70;99.90;;;;;;5032339;28;19917;-88
2022/01/17 01:55:25;;;;;;;;;;;0.60;99.90;;;;;;5031831;28;19928;-86
2022/01/17 01:57:51;;;;;;;;;;;0.60;99.90;;;;;;5032052;28;19952;-87
2022/01/17 02:00:17;;;;;;;;;;;0.60;99.90;;;;;;5031805;28;19913;-86
2022/01/17 02:02:42;;;;;;;;;;;0.50;99.90;;;;;;5032228;28;19968;-87
2022/01/17 02:05:08;;;;;;;;;;;0.60;99.90;;;;;;5032194;28;20645;-86
2022/01/17 02:07:34;;;;;;;;;;;0.60;99.90;;;;;;5032354;28;19966;-86
2022/01/17 02:10:00;;;;;;;;;;;0.60;99.90;;;;;;5030774;28;19925;-85
2022/01/17 02:12:28;;;;;;;;;;;0.70;99.90;;;;;;5012094;28;19913;-89
2022/01/17 02:14:54;;;;;;;;;;;0.70;99.90;;;;;;5013218;28;19917;-86
2022/01/17 02:17:21;;;;;;;;;;;0.60;99.90;;;;;;5018226;28;19971;-89
2022/01/17 02:19:51;;;;;;;;;;;0.60;99.90;;;;;;5031538;28;19913;-87
2022/01/17 02:22:17;;;;;;;;;;;0.70;99.90;;;;;;5033348;28;19909;-88
2022/01/17 02:24:42;;;;;;;;;;;0.70;99.90;;;;;;5031533;28;19925;-86
2022/01/17 02:27:08;;;;;;;;;;;0.70;99.90;;;;;;5031912;28;19909;-87
2022/01/17 02:29:34;;;;;;;;;;;0.70;99.90;;;;;;5032158;28;20003;-88
2022/01/17 02:31:59;;;;;;;;;;;0.70;99.90;;;;;;5030194;28;19917;-88
2022/01/17 02:34:27;;;;;;;;;;;0.70;99.90;;;;;;5016257;28;19921;-87
2022/01/17 02:36:53;;;;;;;;;;;0.70;99.90;;;;;;5037474;28;19914;-86
2022/01/17 02:39:19;;;;;;;;;;;0.60;99.90;;;;;;5038742;28;19913;-87
2022/01/17 02:41:49;;;;;;;;;;;0.60;99.90;;;;;;5037712;28;19913;-86
2022/01/17 02:44:15;;;;;;;;;;;0.60;99.90;;;;;;5031486;28;19932;-87
2022/01/17 02:46:40;;;;;;;;;;;0.50;99.90;;;;;;5031439;28;20388;-88
2022/01/17 02:49:06;;;;;;;;;;;0.50;99.90;;;;;;5031630;28;19909;-86
2022/01/17 02:51:32;;;;;;;;;;;0.50;99.90;;;;;;5031244;28;19963;-86
2022/01/17 02:53:58;;;;;;;;;;;0.60;99.90;;;;;;5031042;28;20298;-86
2022/01/17 02:56:23;;;;;;;;;;;0.50;99.90;;;;;;5031593;28;19959;-86
2022/01/17 02:58:49;;;;;;;;;;;0.40;99.90;;;;;;5034967;28;19943;-89
2022/01/17 03:01:16;;;;;;;;;;;0.30;99.90;;;;;;5011827;28;20114;-86
2022/01/17 03:03:43;;;;;;;;;;;0.30;99.90;;;;;;5015090;28;19917;-87
2022/01/17 03:06:12;;;;;;;;;;;0.20;99.90;;;;;;5037600;28;19913;-88
2022/01/17 03:08:38;;;;;;;;;;;0.20;99.90;;;;;;5032573;28;19913;-89
2022/01/17 03:11:05;;;;;;;;;;;0.10;99.90;;;;;;5032590;28;19967;-86
2022/01/17 03:13:33;;;;;;;;;;;0.00;99.90;;;;;;5015989;28;20365;-87
2022/01/17 03:16:04;;;;;;;;;;;0.00;99.90;;;;;;5033252;28;19913;-85
2022/01/17 03:18:31;;;;;;;;;;;0.10;99.90;;;;;;5029128;28;19914;-85
2022/01/17 03:20:57;;;;;;;;;;;0.20;99.90;;;;;;5031132;28;20000;-88
2022/01/17 03:23:23;;;;;;;;;;;0.30;99.90;;;;;;5033355;28;20372;-86
2022/01/17 03:25:49;;;;;;;;;;;0.30;99.90;;;;;;5031803;28;19935;-86
2022/01/17 03:28:14;;;;;;;;;;;0.40;99.90;;;;;;5031331;28;19920;-87
2022/01/17 03:30:40;;;;;;;;;;;0.40;99.90;;;;;;5029808;28;19913;-86
2022/01/17 03:33:07;;;;;;;;;;;0.40;99.90;;;;;;5031567;28;19909;-86
2022/01/17 03:35:33;;;;;;;;;;;0.50;99.90;;;;;;5047758;28;20059;-85
2022/01/17 03:37:58;;;;;;;;;;;0.50;99.90;;;;;;5031181;28;19960;-89
2022/01/17 03:40:24;;;;;;;;;;;0.50;99.90;;;;;;5030331;28;19952;-86
2022/01/17 03:42:50;;;;;;;;;;;0.50;99.90;;;;;;5030330;28;19909;-87
2022/01/17 03:45:15;;;;;;;;;;;0.60;99.90;;;;;;5031113;28;19916;-88
2022/01/17 03:47:43;;;;;;;;;;;0.70;99.90;;;;;;5031096;28;19919;-87
2022/01/17 03:50:10;;;;;;;;;;;0.70;99.90;;;;;;5032616;28;20329;-87
2022/01/17 03:52:36;;;;;;;;;;;0.70;99.90;;;;;;5031022;28;19909;-87
2022/01/17 03:55:01;;;;;;;;;;;0.70;99.90;;;;;;5030475;28;19923;-86
2022/01/17 03:57:27;;;;;;;;;;;0.60;99.90;;;;;;5032440;28;20077;-85
2022/01/17 03:59:53;;;;;;;;;;;0.60;99.90;;;;;;5032818;28;19909;-88
2022/01/17 04:02:18;;;;;;;;;;;0.60;99.90;;;;;;5031807;28;20254;-86
2022/01/17 04:04:44;;;;;;;;;;;0.70;99.90;;;;;;5030597;28;19936;-87
2022/01/17 04:07:10;;;;;;;;;;;0.70;99.90;;;;;;5029084;28;19917;-87
2022/01/17 04:09:35;;;;;;;;;;;0.70;99.90;;;;;;5025201;28;20336;-86
2022/01/17 04:12:01;;;;;;;;;;;0.70;99.90;;;;;;5030287;28;19929;-88
2022/01/17 04:14:27;;;;;;;;;;;0.70;99.90;;;;;;5030508;28;20284;-88
2022/01/17 04:16:52;;;;;;;;;;;0.70;99.90;;;;;;5026268;28;19960;-86
2022/01/17 04:19:19;;;;;;;;;;;0.60;99.90;;;;;;5028021;28;19925;-88
2022/01/17 04:21:47;;;;;;;;;;;0.70;99.90;;;;;;5035198;28;19911;-87
2022/01/17 04:24:13;;;;;;;;;;;0.70;99.90;;;;;;5036025;28;20320;-89
2022/01/17 04:26:39;;;;;;;;;;;0.70;99.90;;;;;;5036955;28;19920;-89
2022/01/17 04:29:05;;;;;;;;;;;0.70;99.90;;;;;;5053773;28;19913;-87
2022/01/17 04:31:30;;;;;;;;;;;0.70;99.90;;;;;;5041440;28;19971;-88
2022/01/17 04:33:56;;;;;;;;;;;0.70;99.90;;;;;;5029640;28;19920;-87
2022/01/17 04:36:22;;;;;;;;;;;0.70;99.90;;;;;;5036695;28;19917;-88
2022/01/17 04:38:48;;;;;;;;;;;0.70;99.90;;;;;;5036966;28;20020;-89
2022/01/17 04:41:16;;;;;;;;;;;0.70;99.90;;;;;;5036350;28;19959;-84
2022/01/17 04:46:09;;;;;;;;;;;0.70;99.90;;;;;;5038205;28;19909;-87
2022/01/17 04:48:35;;;;;;;;;;;0.70;99.90;;;;;;5036827;28;19920;-87
2022/01/17 04:51:01;;;;;;;;;;;0.70;99.90;;;;;;5036939;28;20023;-87
2022/01/17 04:53:27;;;;;;;;;;;0.70;99.90;;;;;;5036126;28;19975;-88
2022/01/17 04:55:53;;;;;;;;;;;0.70;99.90;;;;;;5043032;28;19917;-88
2022/01/17 04:58:18;;;;;;;;;;;0.60;99.90;;;;;;5045043;28;19925;-90
2022/01/17 05:00:47;;;;;;;;;;;0.60;99.90;;;;;;5044889;28;19924;-85
2022/01/17 05:03:17;;;;;;;;;;;0.60;99.90;;;;;;5039160;28;20353;-87
2022/01/17 05:05:43;;;;;;;;;;;0.50;99.90;;;;;;5048973;28;19917;-88
2022/01/17 05:08:09;;;;;;;;;;;0.60;99.90;;;;;;5044260;28;19937;-86
2022/01/17 05:10:35;;;;;;;;;;;0.60;99.90;;;;;;5051162;28;19913;-88
2022/01/17 05:13:01;;;;;;;;;;;0.70;99.90;;;;;;5046210;28;19917;-88
2022/01/17 05:15:37;;;;;;;;;;;0.70;99.90;;;;;;5042441;28;19967;-86
2022/01/17 05:18:25;;;;;;;;;;;0.70;99.90;;;;;;5039602;28;19913;-86
2022/01/17 05:20:50;;;;;;;;;;;0.70;99.90;;;;;;5037299;28;19955;-88
2022/01/17 05:23:15;;;;;;;;;;;0.70;99.90;;;;;;5017507;28;19925;-86
2022/01/17 05:25:41;;;;;;;;;;;0.70;99.90;;;;;;5035702;28;19913;-87
2022/01/17 05:28:07;;;;;;;;;;;0.60;99.90;;;;;;5035520;28;19913;-85
2022/01/17 05:30:32;;;;;;;;;;;0.50;99.90;;;;;;5033215;28;19928;-86
2022/01/17 05:33:01;;;;;;;;;;;0.60;99.90;;;;;;5032927;28;19918;-87
2022/01/17 05:35:27;;;;;;;;;;;0.60;99.90;;;;;;5031994;28;19913;-86
2022/01/17 05:37:52;;;;;;;;;;;0.60;99.90;;;;;;5032656;28;19917;-86
2022/01/17 05:40:18;;;;;;;;;;;0.70;99.90;;;;;;5032874;28;19916;-86
2022/01/17 05:42:45;;;;;;;;;;;0.60;99.90;;;;;;5032969;28;20440;-86
2022/01/17 05:45:11;;;;;;;;;;;0.70;99.90;;;;;;5034081;28;19913;-87
2022/01/17 05:47:37;;;;;;;;;;;0.60;99.90;;;;;;5031479;28;19909;-87
2022/01/17 05:50:04;;;;;;;;;;;0.60;99.90;;;;;;5032845;28;19913;-87
2022/01/17 05:52:30;;;;;;;;;;;0.60;99.90;;;;;;5034789;28;20254;-87
2022/01/17 05:54:56;;;;;;;;;;;0.70;99.90;;;;;;5026220;28;19943;-88
2022/01/17 05:57:22;;;;;;;;;;;0.70;99.90;;;;;;5027464;28;19913;-86
2022/01/17 05:59:47;;;;;;;;;;;0.70;99.90;;;;;;5034759;28;19909;-88
2022/01/17 06:02:13;;;;;;;;;;;0.70;99.90;;;;;;5017535;28;20262;-86
2022/01/17 06:04:39;;;;;;;;;;;0.70;99.90;;;;;;5026544;28;19926;-85
2022/01/17 06:07:05;;;;;;;;;;;0.80;99.90;;;;;;5033820;28;20003;-86
2022/01/17 06:09:30;;;;;;;;;;;0.70;99.90;;;;;;5026016;28;20008;-89
2022/01/17 06:11:56;;;;;;;;;;;0.70;99.90;;;;;;5014927;28;19952;-86
2022/01/17 06:14:22;;;;;;;;;;;0.70;99.90;;;;;;5016358;28;20125;-85
2022/01/17 06:16:48;;;;;;;;;;;0.70;99.90;;;;;;5032706;28;19916;-86
2022/01/17 06:19:13;;;;;;;;;;;0.70;99.90;;;;;;5033190;28;19944;-86
2022/01/17 06:21:39;;;;;;;;;;;0.70;99.90;;;;;;5032106;28;19943;-87
2022/01/17 06:24:06;;;;;;;;;;;0.60;99.90;;;;;;5031639;28;19921;-87
2022/01/17 06:26:35;;;;;;;;;;;0.60;99.90;;;;;;5016258;28;19921;-86
2022/01/17 06:29:01;;;;;;;;;;;0.60;99.90;;;;;;5015985;28;19963;-88
2022/01/17 06:31:27;;;;;;;;;;;0.60;99.90;;;;;;5032222;28;19921;-89
2022/01/17 06:33:52;;;;;;;;;;;0.60;99.90;;;;;;5031091;28;19913;-87
2022/01/17 06:36:18;;;;;;;;;;;0.60;99.90;;;;;;5030509;28;19925;-88
2022/01/17 06:38:43;;;;;;;;;;;0.60;99.90;;;;;;5014182;28;19917;-86
2022/01/17 06:41:09;;;;;;;;;;;0.60;99.90;;;;;;5032042;28;19932;-86
2022/01/17 06:43:35;;;;;;;;;;;0.70;99.90;;;;;;5044358;28;20391;-85
2022/01/17 06:46:00;;;;;;;;;;;0.70;99.90;;;;;;5031429;28;20249;-86
2022/01/17 06:48:26;;;;;;;;;;;0.70;99.90;;;;;;5031927;28;19920;-88
2022/01/17 06:50:52;;;;;;;;;;;0.70;99.90;;;;;;5032110;28;19910;-89
2022/01/17 06:53:18;;;;;;;;;;;0.80;99.90;;;;;;5031916;28;19913;-86
2022/01/17 06:55:43;;;;;;;;;;;0.90;99.90;;;;;;5031648;28;19913;-86
2022/01/17 06:58:09;;;;;;;;;;;0.90;99.90;;;;;;5031469;28;19913;-86
2022/01/17 07:00:34;;;;;;;;;;;0.90;99.90;;;;;;5029382;28;19987;-88
2022/01/17 07:03:02;;;;;;;;;;;0.90;99.90;;;;;;5031578;28;19992;-89
2022/01/17 07:05:28;;;;;;;;;;;0.90;99.90;;;;;;5031630;28;19909;-86
2022/01/17 07:07:54;;;;;;;;;;;0.90;99.90;;;;;;5031086;28;19963;-88
2022/01/17 07:10:20;;;;;;;;;;;0.90;99.90;;;;;;5011932;28;20331;-87
2022/01/17 07:12:46;;;;;;;;;;;1.00;99.90;;;;;;5030489;28;19913;-87
2022/01/17 07:15:12;;;;;;;;;;;1.00;99.90;;;;;;5022392;28;19928;-87
2022/01/17 07:17:38;;;;;;;;;;;1.00;99.90;;;;;;5027525;28;19913;-88
2022/01/17 07:20:04;;;;;;;;;;;1.00;99.90;;;;;;5031452;28;19924;-87
2022/01/17 07:22:31;;;;;;;;;;;1.00;99.90;;;;;;5030701;28;19932;-87
2022/01/17 07:24:57;;;;;;;;;;;1.10;99.90;;;;;;5031648;28;19921;-85
2022/01/17 07:27:24;;;;;;;;;;;1.10;99.90;;;;;;5030800;28;20437;-87
2022/01/17 07:29:50;;;;;;;;;;;1.00;99.90;;;;;;5030275;28;19996;-88
2022/01/17 07:32:16;;;;;;;;;;;1.10;99.90;;;;;;5029477;28;19985;-86
2022/01/17 07:34:41;;;;;;;;;;;1.20;99.90;;;;;;5045417;28;19917;-85
2022/01/17 07:37:07;;;;;;;;;;;1.20;99.90;;;;;;5029681;28;19931;-86
2022/01/17 07:39:33;;;;;;;;;;;1.20;99.90;;;;;;5029277;28;20323;-85
2022/01/17 07:41:58;;;;;;;;;;;1.30;99.90;;;;;;5030236;28;19915;-86
2022/01/17 07:44:26;;;;;;;;;;;1.30;99.90;;;;;;5019715;28;20383;-87
2022/01/17 07:46:56;;;;;;;;;;;1.40;99.90;;;;;;5019527;28;19966;-86
2022/01/17 07:49:23;;;;;;;;;;;1.30;99.90;;;;;;5010005;28;19910;-86
2022/01/17 07:51:59;;;;;;;;;;;1.30;99.90;;;;;;5016919;28;20404;-86
2022/01/17 07:54:26;;;;;;;;;;;1.30;99.90;;;;;;5029069;28;19909;-86
2022/01/17 07:56:51;;;;;;;;;;;1.30;99.90;;;;;;5027955;28;19963;-86
2022/01/17 07:59:17;;;;;;;;;;;1.40;99.90;;;;;;5030619;28;20258;-86
2022/01/17 08:01:43;;;;;;;;;;;1.40;99.90;;;;;;5029004;28;20391;-87
2022/01/17 08:04:09;;;;;;;;;;;1.40;99.90;;;;;;5029584;28;19925;-85
2022/01/17 08:06:38;;;;;;;;;;;1.40;99.90;;;;;;5009723;28;19910;-84
2022/01/17 08:09:07;;;;;;;;;;;1.50;99.90;;;;;;5010165;28;19949;-88
2022/01/17 08:11:33;;;;;;;;;;;1.40;99.90;;;;;;5009835;28;20324;-86
2022/01/17 08:13:58;;;;;;;;;;;1.40;99.90;;;;;;5007576;28;19971;-87
2022/01/17 08:16:24;;;;;;;;;;;1.40;99.90;;;;;;5019175;28;19924;-87
2022/01/17 08:18:52;;;;;;;;;;;1.50;99.90;;;;;;5027343;28;19909;-85
2022/01/17 08:21:18;;;;;;;;;;;1.50;99.90;;;;;;5029047;28;20380;-87
2022/01/17 08:23:44;;;;;;;;;;;1.50;99.90;;;;;;5029063;28;19921;-87
2022/01/17 08:26:10;;;;;;;;;;;1.60;99.90;;;;;;5030668;28;19963;-88
2022/01/17 08:28:35;;;;;;;;;;;1.70;99.90;;;;;;5029548;28;19941;-87
2022/01/17 08:31:01;;;;;;;;;;;1.80;99.90;;;;;;5029578;28;20007;-88
2022/01/17 08:33:29;;;;;;;;;;;1.70;99.90;;;;;;5015270;28;19914;-89
2022/01/17 08:35:55;;;;;;;;;;;1.70;99.90;;;;;;5031545;28;19921;-87
2022/01/17 08:38:23;;;;;;;;;;;1.80;99.90;;;;;;5033083;28;19981;-86
2022/01/17 08:40:49;;;;;;;;;;;1.80;99.90;;;;;;5030287;28;19909;-87
2022/01/17 08:43:14;;;;;;;;;;;1.80;99.90;;;;;;5014512;28;19925;-86
2022/01/17 08:45:40;;;;;;;;;;;1.90;99.90;;;;;;5027332;28;19928;-89
2022/01/17 08:48:05;;;;;;;;;;;2.00;99.90;;;;;;5011157;28;19937;-87
2022/01/17 08:50:31;;;;;;;;;;;1.90;99.90;;;;;;5031340;28;19918;-86
2022/01/17 08:52:57;;;;;;;;;;;2.00;99.90;;;;;;5017617;28;19909;-86
2022/01/17 08:55:25;;;;;;;;;;;2.10;99.90;;;;;;5034945;28;19924;-86
2022/01/17 08:57:51;;;;;;;;;;;2.40;99.90;;;;;;5035425;28;19913;-87
2022/01/17 09:00:18;;;;;;;;;;;2.50;99.90;;;;;;5023859;28;19956;-86
2022/01/17 09:02:43;;;;;;;;;;;2.70;99.90;;;;;;5020043;28;20302;-87
2022/01/17 09:05:09;;;;;;;;;;;2.70;99.90;;;;;;5015922;28;19967;-87
2022/01/17 09:07:35;;;;;;;;;;;2.90;99.90;;;;;;5034346;28;19909;-88
2022/01/17 09:10:00;;;;;;;;;;;2.90;99.90;;;;;;5036176;28;19967;-86
2022/01/17 09:12:26;;;;;;;;;;;2.90;99.90;;;;;;5034536;28;19917;-88
2022/01/17 09:14:55;;;;;;;;;;;2.90;99.90;;;;;;5035963;28;19915;-86
2022/01/17 09:17:20;;;;;;;;;;;2.90;99.90;;;;;;5035142;28;19909;-87
2022/01/17 09:19:48;;;;;;;;;;;2.80;99.90;;;;;;5044549;28;20005;-88
2022/01/17 09:22:14;;;;;;;;;;;2.90;99.90;;;;;;5054526;28;20363;-87
2022/01/17 09:24:39;;;;;;;;;;;3.10;99.90;;;;;;5033734;28;20016;-87
2022/01/17 09:27:07;;;;;;;;;;;3.20;99.90;;;;;;5032518;28;20378;-89
2022/01/17 09:29:33;;;;;;;;;;;3.30;99.90;;;;;;5032233;28;19913;-87
2022/01/17 09:31:59;;;;;;;;;;;3.30;99.90;;;;;;5032701;28;20004;-86
2022/01/17 09:34:25;;;;;;;;;;;3.30;99.90;;;;;;5034229;28;20003;-86
2022/01/17 09:36:52;;;;;;;;;;;3.40;99.90;;;;;;5018025;28;19921;-86
2022/01/17 09:39:18;;;;;;;;;;;3.50;99.90;;;;;;5034194;28;19913;-85
2022/01/17 09:41:44;;;;;;;;;;;3.40;99.90;;;;;;5031430;28;19909;-86
2022/01/17 09:44:09;;;;;;;;;;;3.40;99.90;;;;;;5036880;28;19917;-85
2022/01/17 09:46:40;;;;;;;;;;;3.40;99.90;;;;;;5031608;28;19913;-88
2022/01/17 09:49:15;;;;;;;;;;;3.40;99.90;;;;;;5031148;28;19917;-86
2022/01/17 09:52:03;;;;;;;;;;;3.60;99.90;;;;;;5030098;28;19913;-86
2022/01/17 09:54:35;;;;;;;;;;;3.50;99.90;;;;;;5025215;28;19951;-85
2022/01/17 09:57:06;;;;;;;;;;;3.60;99.90;;;;;;5031342;28;19917;-86
2022/01/17 09:59:32;;;;;;;;;;;3.60;99.90;;;;;;5031412;28;20384;-86
2022/01/17 10:01:58;;;;;;;;;;;3.50;99.90;;;;;;5031076;28;19917;-87
2022/01/17 10:04:23;;;;;;;;;;;3.60;99.90;;;;;;5032807;28;19912;-85
2022/01/17 10:06:53;;;;;;;;;;;3.70;99.90;;;;;;5029101;28;20332;-85
2022/01/17 10:09:21;;;;;;;;;;;3.70;99.90;;;;;;5028514;28;19917;-89
2022/01/17 10:12:03;;;;;;;;;;;3.80;99.90;;;;;;5030966;28;20654;-84
2022/01/17 10:14:31;;;;;;;;;;;3.80;99.70;;;;;;5030363;28;19913;-87
2022/01/17 10:16:57;;;;;;;;;;;3.90;99.90;;;;;;5028632;28;20395;-87
2022/01/17 10:19:24;;;;;;;;;;;3.70;99.90;;;;;;5031713;28;19917;-86
2022/01/17 10:21:54;;;;;;;;;;;3.80;99.90;;;;;;5022422;28;19992;-84
2022/01/17 10:27:00;;;;;;;;;;;4.00;99.90;;;;;;5030733;28;19913;-88
2022/01/17 10:37:14;;;;;;;;;;;4.00;99.90;;;;;;5031892;28;19952;-88
2022/01/17 10:39:54;;;;;;;;;;;4.20;99.90;;;;;;5031099;28;19948;-86
2022/01/17 10:42:24;;;;;;;;;;;4.30;99.90;;;;;;5022837;28;19917;-85
2022/01/17 10:44:50;;;;;;;;;;;4.30;99.40;;;;;;5031279;28;20356;-86
2022/01/17 10:47:19;;;;;;;;;;;4.50;99.80;;;;;;5029916;28;19956;-88
2022/01/17 10:49:46;;;;;;;;;;;4.50;99.90;;;;;;5030228;28;19913;-87
2022/01/17 10:52:13;;;;;;;;;;;4.70;99.10;;;;;;5030871;28;19921;-88
2022/01/17 10:54:41;;;;;;;;;;;4.70;98.80;;;;;;5030638;28;19921;-84
2022/01/17 10:57:08;;;;;;;;;;;4.70;98.40;;;;;;5029974;28;20261;-87
2022/01/17 10:59:36;;;;;;;;;;;4.80;98.10;;;;;;5028907;28;20404;-89
2022/01/17 11:02:02;;;;;;;;;;;4.80;97.80;;;;;;5027951;28;20376;-88
2022/01/17 11:04:35;;;;;;;;;;;4.80;98.20;;;;;;5018190;28;19920;-87
2022/01/17 11:07:04;;;;;;;;;;;4.70;97.00;;;;;;5025500;28;19913;-87
2022/01/17 11:09:39;;;;;;;;;;;4.70;97.70;;;;;;5029088;28;20068;-88
2022/01/17 11:12:12;;;;;;;;;;;4.60;97.10;;;;;;5029380;28;19913;-85
2022/01/17 11:14:38;;;;;;;;;;;4.60;98.00;;;;;;5029051;28;20265;-85
2022/01/17 11:17:20;;;;;;;;;;;4.80;97.30;;;;;;5028961;28;19921;-85
2022/01/17 11:20:06;;;;;;;;;;;4.90;97.70;;;;;;5024693;28;19920;-87
2022/01/17 11:22:32;;;;;;;;;;;4.90;96.90;;;;;;5029186;28;19917;-89
2022/01/17 11:24:58;;;;;;;;;;;5.10;96.80;;;;;;5025551;28;19917;-87
2022/01/17 11:27:24;;;;;;;;;;;5.30;96.80;;;;;;5020414;28;20401;-88
2022/01/17 11:29:50;;;;;;;;;;;5.30;95.90;;;;;;5029826;28;19967;-86
2022/01/17 11:32:16;;;;;;;;;;;5.20;96.10;;;;;;5008662;28;19918;-87
2022/01/17 11:34:42;;;;;;;;;;;5.20;95.80;;;;;;5038131;28;19924;-86
2022/01/17 11:37:08;;;;;;;;;;;5.10;96.80;;;;;;5024277;28;19917;-87
2022/01/17 11:39:42;;;;;;;;;;;5.20;96.00;;;;;;5010822;28;19917;-86
2022/01/17 11:42:27;;;;;;;;;;;5.20;96.10;;;;;;5030112;28;19909;-86
2022/01/17 11:44:52;;;;;;;;;;;5.30;95.80;;;;;;5027167;28;19913;-86
2022/01/17 11:47:37;;;;;;;;;;;5.40;95.40;;;;;;5012203;28;20697;-85
2022/01/17 11:50:33;;;;;;;;;;;5.30;95.10;;;;;;5026893;28;19941;-88
2022/01/17 11:53:11;;;;;;;;;;;5.80;95.50;;;;;;5025661;28;20008;-87
2022/01/17 11:55:42;;;;;;;;;;;5.90;95.40;;;;;;5039708;28;19917;-88
2022/01/17 11:58:18;;;;;;;;;;;5.60;94.90;;;;;;5053421;28;19961;-89
2022/01/17 12:00:44;;;;;;;;;;;5.50;95.70;;;;;;5049062;28;19917;-88
2022/01/17 12:03:17;;;;;;;;;;;5.50;95.20;;;;;;5031028;28;19913;-88
2022/01/17 12:05:43;;;;;;;;;;;5.40;95.10;;;;;;5031419;28;19909;-88
2022/01/17 12:08:09;;;;;;;;;;;5.50;95.20;;;;;;5013951;28;20277;-87
2022/01/17 12:10:42;;;;;;;;;;;5.50;94.80;;;;;;5008741;28;20293;-84
2022/01/17 12:13:15;;;;;;;;;;;5.40;94.90;;;;;;5029914;28;19913;-88
2022/01/17 12:16:06;;;;;;;;;;;5.40;95.40;;;;;;5028149;28;19963;-87
2022/01/17 12:18:36;;;;;;;;;;;5.40;95.70;;;;;;5030358;28;20327;-88
2022/01/17 12:21:20;;;;;;;;;;;5.20;96.30;;;;;;5030214;28;20368;-87
2022/01/17 12:23:46;;;;;;;;;;;5.10;97.70;;;;;;5028830;28;19982;-86
2022/01/17 12:26:25;;;;;;;;;;;5.00;98.30;;;;;;5028797;28;20416;-87
2022/01/17 12:28:53;;;;;;;;;;;4.90;99.90;;;;;;5029070;28;19921;-89
2022/01/17 12:31:37;;;;;;;;;;;5.00;99.70;;;;;;5009984;28;19917;-87
2022/01/17 12:34:23;;;;;;;;;;;5.10;99.30;;;;;;5030116;28;19913;-88
2022/01/17 12:36:49;;;;;;;;;;;5.20;97.70;;;;;;5026346;28;19925;-87
2022/01/17 12:39:15;;;;;;;;;;;5.20;97.50;;;;;;5028592;28;20099;-86
2022/01/17 12:41:41;;;;;;;;;;;5.00;97.20;;;;;;5033478;28;20257;-85
2022/01/17 12:44:24;;;;;;;;;;;4.90;96.80;;;;;;5034408;28;20427;-87
2022/01/17 12:46:54;;;;;;;;;;;5.10;97.70;;;;;;5040605;28;19921;-85
2022/01/17 12:49:20;;;;;;;;;;;5.20;98.40;;;;;;5031973;28;20376;-84
2022/01/17 12:51:47;;;;;;;;;;;5.20;97.80;;;;;;5015787;28;19913;-85
2022/01/17 12:54:15;;;;;;;;;;;5.30;97.90;;;;;;5032554;28;19952;-88
2022/01/17 12:56:45;;;;;;;;;;;5.40;97.30;;;;;;5014222;28;20721;-86
2022/01/17 12:59:11;;;;;;;;;;;5.60;97.10;;;;;;5028559;28;19967;-89
2022/01/17 13:01:42;;;;;;;;;;;5.70;96.30;;;;;;5022476;28;19921;-85
2022/01/17 13:04:11;;;;;;;;;;;5.50;95.90;;;;;;5030538;28;20368;-89
2022/01/17 13:06:37;;;;;;;;;;;5.60;96.60;;;;;;5047179;28;19963;-87
2022/01/17 13:09:07;;;;;;;;;;;5.50;96.30;;;;;;5027202;28;19918;-85
2022/01/17 13:11:37;;;;;;;;;;;5.50;96.60;;;;;;5029459;28;19913;-87
2022/01/17 13:14:03;;;;;;;;;;;5.40;97.10;;;;;;5033976;28;19917;-88
2022/01/17 13:16:31;;;;;;;;;;;5.40;97.40;;;;;;5017552;28;19928;-90
2022/01/17 13:18:57;;;;;;;;;;;5.50;97.00;;;;;;5035312;28;20380;-89
2022/01/17 13:21:23;;;;;;;;;;;5.50;97.00;;;;;;5034488;28;19917;-86
2022/01/17 13:23:54;;;;;;;;;;;5.30;95.90;;;;;;5035821;28;19936;-87
2022/01/17 13:26:37;;;;;;;;;;;5.00;96.60;;;;;;5032501;28;20391;-87
2022/01/17 13:29:06;;;;;;;;;;;4.90;97.30;;;;;;5031871;28;20209;-88
2022/01/17 13:31:32;;;;;;;;;;;4.80;98.40;;;;;;5031969;28;20369;-84
2022/01/17 13:34:15;;;;;;;;;;;4.80;99.70;;;;;;5032920;28;19913;-84
2022/01/17 13:36:41;;;;;;;;;;;4.80;99.40;;;;;;5032548;28;19967;-85
2022/01/17 13:39:09;;;;;;;;;;;4.60;99.90;;;;;;5033130;28;19913;-86
2022/01/17 13:41:37;;;;;;;;;;;4.60;99.90;;;;;;5033079;28;19920;-84
2022/01/17 13:44:04;;;;;;;;;;;4.60;99.90;;;;;;5031256;28;19955;-86
2022/01/17 13:46:29;;;;;;;;;;;4.60;99.90;;;;;;5032616;28;19916;-84
2022/01/17 13:48:55;;;;;;;;;;;4.50;99.90;;;;;;5033009;28;19920;-85
2022/01/17 13:51:22;;;;;;;;;;;4.50;99.90;;;;;;5031915;28;19917;-88
2022/01/17 13:53:48;;;;;;;;;;;4.70;99.90;;;;;;5027731;28;19914;-89
2022/01/17 13:56:14;;;;;;;;;;;4.80;99.90;;;;;;5035448;28;19925;-84
2022/01/17 13:58:41;;;;;;;;;;;4.90;99.30;;;;;;5035053;28;19917;-85
2022/01/17 14:01:11;;;;;;;;;;;4.80;99.90;;;;;;5035425;28;19917;-85
2022/01/17 14:03:39;;;;;;;;;;;4.90;99.90;;;;;;5034705;28;19913;-87
2022/01/17 14:06:15;;;;;;;;;;;4.90;99.90;;;;;;5033327;28;19920;-86
2022/01/17 14:08:50;;;;;;;;;;;4.90;99.10;;;;;;5032389;28;19917;-85
2022/01/17 14:11:18;;;;;;;;;;;4.80;99.90;;;;;;5032530;28;19919;-86
2022/01/17 14:13:43;;;;;;;;;;;4.70;99.60;;;;;;5032348;28;19928;-86
2022/01/17 14:16:14;;;;;;;;;;;4.80;99.90;;;;;;5031920;28;19925;-86
2022/01/17 14:18:43;;;;;;;;;;;4.70;99.90;;;;;;5025479;28;19913;-88
2022/01/17 14:21:19;;;;;;;;;;;4.70;99.90;;;;;;5030423;28;19928;-85
2022/01/17 14:23:44;;;;;;;;;;;4.70;99.90;;;;;;5029816;28;19963;-87
2022/01/17 14:26:23;;;;;;;;;;;4.80;99.90;;;;;;5030669;28;20408;-89
2022/01/17 14:28:49;;;;;;;;;;;4.80;99.90;;;;;;5031358;28;19909;-84
2022/01/17 14:31:15;;;;;;;;;;;4.80;99.90;;;;;;5046327;28;19949;-87
2022/01/17 14:33:42;;;;;;;;;;;4.60;99.90;;;;;;5030212;28;19979;-85
2022/01/17 14:36:11;;;;;;;;;;;4.50;99.90;;;;;;5029087;28;19917;-85
2022/01/17 14:38:48;;;;;;;;;;;4.50;99.90;;;;;;5030252;28;20300;-86
2022/01/17 14:41:20;;;;;;;;;;;4.50;99.90;;;;;;5021630;28;19910;-87
2022/01/17 14:43:46;;;;;;;;;;;4.40;99.90;;;;;;5047154;28;19913;-88
2022/01/17 14:46:12;;;;;;;;;;;4.50;99.90;;;;;;5030096;28;19917;-87
2022/01/17 14:48:44;;;;;;;;;;;4.40;99.90;;;;;;5027596;28;19966;-86
2022/01/17 14:51:16;;;;;;;;;;;4.50;99.90;;;;;;5033581;28;19917;-88
2022/01/17 14:53:42;;;;;;;;;;;4.40;99.90;;;;;;5037221;28;19924;-89
2022/01/17 15:01:44;;;;;;;;;;;4.40;99.90;;;;;;5032671;28;19924;-86
2022/01/17 15:04:10;;;;;;;;;;;4.30;99.90;;;;;;5031328;28;19920;-89